createdAt,value
2018-10-02T00:00:14.806Z,15.80
2018-10-02T00:02:43.886Z,15.76
2018-10-02T00:05:12.991Z,15.65
2018-10-02T00:07:42.043Z,15.61
2018-10-02T00:10:11.099Z,15.63
2018-10-02T00:12:45.165Z,15.65
2018-10-02T00:15:14.128Z,15.66
2018-10-02T00:17:43.690Z,15.74
2018-10-02T00:20:12.823Z,15.71
2018-10-02T00:22:42.110Z,15.76
2018-10-02T00:25:11.407Z,15.57
2018-10-02T00:27:40.695Z,15.60
2018-10-02T00:30:09.753Z,15.59
2018-10-02T00:32:38.796Z,15.62
2018-10-02T00:35:07.873Z,15.52
2018-10-02T00:37:36.959Z,15.44
2018-10-02T00:40:06.524Z,15.42
2018-10-02T00:42:35.571Z,15.51
2018-10-02T00:45:04.619Z,15.51
2018-10-02T00:47:33.764Z,15.44
2018-10-02T00:50:03.434Z,15.37
2018-10-02T00:52:32.877Z,15.42
2018-10-02T00:55:01.968Z,15.54
2018-10-02T00:57:31.486Z,15.45
2018-10-02T01:00:00.965Z,15.47
2018-10-02T01:02:29.971Z,15.37
2018-10-02T01:04:59.070Z,15.25
2018-10-02T01:07:28.214Z,15.22
2018-10-02T01:09:57.739Z,15.24
2018-10-02T01:12:26.771Z,15.19
2018-10-02T01:14:55.904Z,15.19
2018-10-02T01:17:25.197Z,15.20
2018-10-02T01:19:54.274Z,15.15
2018-10-02T01:22:23.443Z,15.22
2018-10-02T01:24:52.524Z,15.06
2018-10-02T01:27:21.539Z,15.01
2018-10-02T01:29:50.686Z,15.07
2018-10-02T01:32:19.804Z,15.09
2018-10-02T01:34:48.825Z,15.16
2018-10-02T01:37:17.875Z,15.14
2018-10-02T01:39:46.899Z,15.17
2018-10-02T01:42:16.421Z,15.15
2018-10-02T01:44:46.008Z,15.19
2018-10-02T01:47:15.410Z,15.17
2018-10-02T01:49:44.547Z,15.23
2018-10-02T01:52:13.837Z,15.24
2018-10-02T01:54:43.168Z,15.22
2018-10-02T01:57:12.575Z,15.19
2018-10-02T01:59:41.963Z,15.22
2018-10-02T02:02:11.442Z,15.18
2018-10-02T02:04:40.487Z,15.16
2018-10-02T02:07:09.614Z,15.01
2018-10-02T02:09:38.674Z,15.04
2018-10-02T02:12:08.016Z,14.96
2018-10-02T02:14:37.190Z,15.02
2018-10-02T02:17:06.228Z,14.99
2018-10-02T02:19:35.251Z,14.97
2018-10-02T02:22:04.361Z,14.99
2018-10-02T02:24:33.602Z,14.94
2018-10-02T02:27:02.664Z,14.93
2018-10-02T02:29:31.730Z,14.94
2018-10-02T02:32:00.816Z,14.93
2018-10-02T02:34:29.871Z,14.96
2018-10-02T02:36:58.916Z,14.96
2018-10-02T02:39:28.075Z,15.04
2018-10-02T02:41:57.249Z,14.99
2018-10-02T02:44:26.754Z,14.93
2018-10-02T02:47:00.660Z,14.95
2018-10-02T02:49:34.722Z,14.99
2018-10-02T02:52:03.939Z,15.06
2018-10-02T02:54:32.998Z,15.09
2018-10-02T02:57:02.063Z,15.04
2018-10-02T02:59:31.109Z,15.16
2018-10-02T03:02:00.125Z,15.24
2018-10-02T03:04:29.257Z,15.15
2018-10-02T03:06:58.494Z,15.24
2018-10-02T03:09:27.546Z,15.11
2018-10-02T03:11:56.733Z,15.06
2018-10-02T03:14:25.758Z,15.12
2018-10-02T03:16:54.966Z,15.16
2018-10-02T03:19:24.445Z,15.09
2018-10-02T03:21:53.591Z,15.14
2018-10-02T03:24:22.991Z,15.16
2018-10-02T03:26:52.098Z,15.06
2018-10-02T03:29:21.219Z,15.21
2018-10-02T03:31:50.614Z,15.30
2018-10-02T03:34:20.013Z,15.15
2018-10-02T03:36:49.150Z,15.32
2018-10-02T03:39:18.390Z,15.19
2018-10-02T03:41:47.533Z,15.38
2018-10-02T03:44:16.607Z,15.50
2018-10-02T03:46:45.753Z,15.25
2018-10-02T03:49:14.900Z,15.19
2018-10-02T03:51:43.897Z,15.35
2018-10-02T03:54:13.051Z,15.42
2018-10-02T03:56:42.235Z,15.24
2018-10-02T03:59:11.643Z,15.45
2018-10-02T04:01:41.156Z,15.52
2018-10-02T04:04:10.559Z,15.40
2018-10-02T04:06:40.076Z,15.22
2018-10-02T04:09:11.009Z,15.21
2018-10-02T04:11:40.558Z,15.24
2018-10-02T04:14:09.590Z,15.25
2018-10-02T04:16:38.873Z,15.24
2018-10-02T04:19:08.305Z,15.25
2018-10-02T04:21:38.054Z,15.26
2018-10-02T04:24:08.529Z,15.33
2018-10-02T04:26:38.171Z,15.32
2018-10-02T04:29:07.826Z,15.30
2018-10-02T04:31:38.007Z,15.26
2018-10-02T04:34:07.224Z,15.33
2018-10-02T04:36:36.822Z,15.25
2018-10-02T04:39:08.600Z,15.24
2018-10-02T04:41:37.931Z,15.20
2018-10-02T04:44:06.987Z,15.22
2018-10-02T04:46:36.063Z,15.21
2018-10-02T04:49:05.163Z,15.14
2018-10-02T04:51:34.265Z,15.28
2018-10-02T04:54:03.323Z,15.23
2018-10-02T04:56:32.408Z,15.17
2018-10-02T04:59:01.430Z,15.09
2018-10-02T05:01:30.542Z,15.20
2018-10-02T05:03:59.705Z,15.26
2018-10-02T05:06:28.835Z,15.19
2018-10-02T05:08:57.865Z,15.25
2018-10-02T05:11:26.990Z,15.20
2018-10-02T05:13:56.069Z,15.17
2018-10-02T05:16:25.450Z,15.19
2018-10-02T05:18:54.755Z,15.23
2018-10-02T05:21:24.099Z,15.24
2018-10-02T05:23:53.477Z,15.17
2018-10-02T05:26:22.621Z,15.23
2018-10-02T05:28:51.658Z,15.30
2018-10-02T05:31:20.702Z,15.23
2018-10-02T05:33:49.756Z,15.19
2018-10-02T05:36:18.967Z,15.35
2018-10-02T05:38:47.997Z,15.29
2018-10-02T05:41:17.217Z,15.33
2018-10-02T05:43:47.158Z,15.44
2018-10-02T05:46:16.267Z,15.37
2018-10-02T05:48:45.408Z,15.41
2018-10-02T05:51:15.157Z,15.44
2018-10-02T05:53:44.164Z,15.50
2018-10-02T05:56:13.305Z,15.46
2018-10-02T05:58:42.361Z,15.55
2018-10-02T06:01:11.490Z,15.48
2018-10-02T06:03:40.477Z,15.43
2018-10-02T06:06:09.520Z,15.47
2018-10-02T06:08:38.648Z,15.44
2018-10-02T06:11:07.829Z,15.46
2018-10-02T06:13:36.984Z,15.45
2018-10-02T06:16:05.999Z,15.44
2018-10-02T06:18:35.181Z,15.51
2018-10-02T06:21:04.452Z,15.45
2018-10-02T06:23:33.834Z,15.51
2018-10-02T06:26:02.858Z,15.48
2018-10-02T06:28:31.936Z,15.68
2018-10-02T06:31:01.015Z,15.59
2018-10-02T06:33:30.141Z,15.67
2018-10-02T06:35:59.141Z,15.75
2018-10-02T06:38:28.490Z,15.74
2018-10-02T06:40:57.355Z,15.78
2018-10-02T06:43:26.552Z,15.75
2018-10-02T06:45:55.621Z,15.66
2018-10-02T06:48:24.814Z,15.73
2018-10-02T06:50:54.145Z,15.73
2018-10-02T06:53:23.451Z,15.74
2018-10-02T06:55:52.774Z,15.77
2018-10-02T06:58:21.812Z,15.75
2018-10-02T07:00:51.172Z,15.75
2018-10-02T07:03:20.314Z,15.73
2018-10-02T07:05:49.449Z,15.77
2018-10-02T07:08:18.671Z,15.68
2018-10-02T07:10:48.044Z,15.80
2018-10-02T07:13:17.373Z,15.86
2018-10-02T07:15:46.760Z,15.93
2018-10-02T07:18:16.152Z,16.11
2018-10-02T07:20:45.278Z,16.04
2018-10-02T07:23:14.687Z,16.10
2018-10-02T07:25:43.729Z,16.22
2018-10-02T07:28:12.782Z,16.07
2018-10-02T07:30:42.000Z,16.12
2018-10-02T07:33:11.026Z,16.06
2018-10-02T07:35:40.112Z,16.17
2018-10-02T07:38:09.195Z,16.36
2018-10-02T07:40:38.272Z,16.39
2018-10-02T07:43:07.326Z,16.36
2018-10-02T07:45:36.505Z,16.49
2018-10-02T07:48:05.668Z,16.46
2018-10-02T07:50:34.865Z,16.53
2018-10-02T07:53:03.979Z,16.54
2018-10-02T07:55:33.332Z,16.63
2018-10-02T07:58:02.540Z,16.62
2018-10-02T08:00:31.567Z,16.50
2018-10-02T08:03:00.758Z,16.63
2018-10-02T08:05:30.155Z,16.53
2018-10-02T08:07:59.316Z,16.53
2018-10-02T08:10:28.389Z,16.77
2018-10-02T08:12:57.461Z,16.86
2018-10-02T08:15:26.656Z,16.65
2018-10-02T08:17:55.881Z,16.69
2018-10-02T08:20:24.946Z,16.67
2018-10-02T08:22:54.147Z,16.75
2018-10-02T08:25:23.714Z,16.73
2018-10-02T08:27:53.280Z,16.76
2018-10-02T08:30:22.419Z,16.89
2018-10-02T08:32:51.608Z,16.98
2018-10-02T08:35:20.761Z,17.03
2018-10-02T08:37:49.871Z,17.13
2018-10-02T08:40:18.979Z,17.03
2018-10-02T08:42:47.996Z,16.95
2018-10-02T08:45:17.112Z,16.96
2018-10-02T08:47:46.247Z,17.03
2018-10-02T08:50:15.296Z,17.07
2018-10-02T08:52:44.465Z,17.09
2018-10-02T08:55:13.661Z,17.35
2018-10-02T08:57:42.783Z,17.52
2018-10-02T09:00:11.817Z,17.54
2018-10-02T09:02:40.984Z,17.43
2018-10-02T09:05:10.034Z,17.57
2018-10-02T09:07:39.094Z,17.99
2018-10-02T09:10:08.430Z,17.82
2018-10-02T09:12:37.557Z,18.02
2018-10-02T09:15:12.156Z,18.11
2018-10-02T09:17:36.113Z,18.37
2018-10-02T09:20:05.218Z,17.96
2018-10-02T09:22:34.253Z,18.26
2018-10-02T09:25:03.434Z,18.60
2018-10-02T09:27:32.443Z,18.65
2018-10-02T09:30:06.705Z,18.51
2018-10-02T09:32:40.957Z,18.65
2018-10-02T09:35:14.966Z,18.73
2018-10-02T09:37:49.012Z,18.89
2018-10-02T09:40:23.273Z,19.08
2018-10-02T09:42:57.540Z,18.92
2018-10-02T09:45:27.475Z,18.87
2018-10-02T09:47:58.168Z,18.93
2018-10-02T09:50:27.217Z,19.17
2018-10-02T09:52:56.377Z,19.03
2018-10-02T09:55:25.422Z,19.35
2018-10-02T09:57:54.431Z,19.49
2018-10-02T10:00:27.587Z,19.39
2018-10-02T10:02:57.410Z,19.94
2018-10-02T10:05:27.737Z,19.86
2018-10-02T10:07:56.830Z,19.61
2018-10-02T10:10:26.340Z,19.80
2018-10-02T10:12:55.360Z,19.84
2018-10-02T10:15:24.633Z,19.83
2018-10-02T10:17:54.153Z,19.95
2018-10-02T10:20:23.409Z,20.54
2018-10-02T10:22:52.628Z,20.46
2018-10-02T10:25:21.765Z,20.23
2018-10-02T10:27:51.124Z,20.74
2018-10-02T10:30:20.203Z,20.49
2018-10-02T10:32:49.272Z,20.39
2018-10-02T10:35:18.357Z,20.56
2018-10-02T10:37:47.447Z,20.54
2018-10-02T10:40:17.730Z,20.80
2018-10-02T10:42:47.099Z,20.27
2018-10-02T10:45:16.396Z,20.60
2018-10-02T10:47:45.622Z,20.30
2018-10-02T10:50:15.275Z,20.37
2018-10-02T10:52:44.470Z,20.30
2018-10-02T10:55:22.716Z,20.50
2018-10-02T10:57:52.443Z,20.35
2018-10-02T11:00:22.065Z,20.29
2018-10-02T11:02:51.514Z,20.43
2018-10-02T11:05:20.659Z,20.73
2018-10-02T11:07:49.700Z,20.59
2018-10-02T11:10:19.604Z,20.71
2018-10-02T11:12:49.168Z,20.90
2018-10-02T11:15:19.423Z,20.89
2018-10-02T11:17:48.744Z,20.57
2018-10-02T11:20:23.081Z,20.92
2018-10-02T11:22:52.322Z,21.65
2018-10-02T11:25:21.722Z,22.03
2018-10-02T11:27:50.788Z,21.70
2018-10-02T11:30:19.906Z,21.65
2018-10-02T11:32:49.406Z,21.88
2018-10-02T11:35:18.814Z,21.48
2018-10-02T11:37:48.222Z,21.64
2018-10-02T11:40:17.677Z,21.36
2018-10-02T11:42:46.775Z,21.39
2018-10-02T11:45:15.949Z,21.18
2018-10-02T11:47:45.112Z,21.31
2018-10-02T11:50:14.111Z,21.03
2018-10-02T11:52:43.276Z,21.35
2018-10-02T11:55:12.383Z,21.34
2018-10-02T11:57:41.618Z,21.50
2018-10-02T12:00:10.903Z,21.61
2018-10-02T12:02:40.433Z,21.55
2018-10-02T12:05:09.464Z,21.38
2018-10-02T12:07:38.516Z,21.34
2018-10-02T12:10:07.658Z,21.54
2018-10-02T12:12:36.837Z,21.36
2018-10-02T12:15:06.162Z,21.74
2018-10-02T12:17:35.289Z,21.67
2018-10-02T12:20:04.422Z,21.63
2018-10-02T12:22:33.431Z,21.61
2018-10-02T12:25:02.561Z,21.84
2018-10-02T12:27:31.654Z,21.64
2018-10-02T12:30:00.745Z,21.99
2018-10-02T12:32:29.938Z,21.68
2018-10-02T12:34:59.142Z,21.85
2018-10-02T12:37:28.418Z,22.38
2018-10-02T12:39:57.548Z,21.91
2018-10-02T12:42:26.984Z,22.14
2018-10-02T12:44:56.601Z,21.81
2018-10-02T12:47:26.146Z,21.65
2018-10-02T12:49:55.527Z,21.73
2018-10-02T12:52:25.190Z,21.94
2018-10-02T12:54:54.236Z,21.89
2018-10-02T12:57:23.584Z,21.53
2018-10-02T12:59:52.628Z,21.86
2018-10-02T13:02:21.637Z,21.86
2018-10-02T13:04:50.678Z,22.20
2018-10-02T13:07:19.832Z,22.13
2018-10-02T13:09:48.907Z,22.16
2018-10-02T13:12:18.056Z,22.12
2018-10-02T13:14:47.237Z,21.93
2018-10-02T13:17:16.320Z,22.59
2018-10-02T13:19:45.719Z,22.60
2018-10-02T13:22:15.296Z,22.28
2018-10-02T13:24:44.911Z,22.14
2018-10-02T13:27:13.899Z,22.23
2018-10-02T13:29:42.932Z,22.63
2018-10-02T13:32:12.550Z,22.45
2018-10-02T13:34:41.783Z,22.28
2018-10-02T13:37:10.867Z,22.28
2018-10-02T13:39:40.360Z,22.40
2018-10-02T13:42:09.462Z,22.70
2018-10-02T13:44:38.539Z,22.27
2018-10-02T13:47:07.641Z,22.62
2018-10-02T13:49:36.776Z,22.39
2018-10-02T13:52:05.809Z,22.16
2018-10-02T13:54:34.898Z,22.51
2018-10-02T13:57:04.080Z,22.85
2018-10-02T13:59:33.455Z,23.30
2018-10-02T14:02:02.559Z,22.70
2018-10-02T14:04:31.659Z,22.29
2018-10-02T14:07:00.780Z,22.33
2018-10-02T14:09:29.942Z,22.41
2018-10-02T14:11:58.968Z,22.55
2018-10-02T14:14:28.324Z,22.79
2018-10-02T14:16:57.473Z,22.68
2018-10-02T14:19:26.912Z,23.01
2018-10-02T14:21:56.256Z,22.82
2018-10-02T14:24:25.520Z,22.49
2018-10-02T14:26:54.983Z,22.23
2018-10-02T14:29:24.539Z,22.51
2018-10-02T14:31:53.843Z,22.51
2018-10-02T14:34:23.492Z,22.66
2018-10-02T14:36:52.942Z,22.83
2018-10-02T14:39:22.430Z,22.84
2018-10-02T14:41:51.568Z,22.66
2018-10-02T14:44:20.815Z,23.10
2018-10-02T14:46:49.922Z,23.47
2018-10-02T14:49:19.116Z,23.43
2018-10-02T14:51:48.263Z,23.71
2018-10-02T14:54:17.322Z,23.36
2018-10-02T14:56:46.460Z,23.21
2018-10-02T14:59:15.745Z,23.34
2018-10-02T15:01:44.897Z,23.35
2018-10-02T15:04:13.869Z,23.90
2018-10-02T15:06:43.193Z,24.65
2018-10-02T15:09:12.891Z,24.27
2018-10-02T15:11:42.003Z,23.58
2018-10-02T15:14:11.126Z,23.13
2018-10-02T15:16:40.312Z,22.57
2018-10-02T15:19:09.339Z,22.56
2018-10-02T15:21:38.425Z,22.27
2018-10-02T15:24:07.486Z,22.36
2018-10-02T15:26:36.568Z,22.77
2018-10-02T15:29:05.757Z,22.79
2018-10-02T15:31:35.147Z,22.85
2018-10-02T15:34:04.564Z,22.58
2018-10-02T15:36:33.864Z,22.91
2018-10-02T15:39:03.020Z,22.84
2018-10-02T15:41:32.126Z,22.23
2018-10-02T15:44:01.222Z,21.84
2018-10-02T15:46:30.456Z,21.25
2018-10-02T15:48:59.560Z,20.85
2018-10-02T15:51:28.725Z,20.65
2018-10-02T15:53:57.781Z,20.52
2018-10-02T15:56:26.974Z,20.43
2018-10-02T15:58:56.067Z,20.24
2018-10-02T16:01:25.842Z,20.18
2018-10-02T16:03:54.951Z,20.06
2018-10-02T16:06:24.004Z,19.99
2018-10-02T16:08:53.080Z,19.77
2018-10-02T16:11:22.197Z,19.64
2018-10-02T16:13:51.312Z,19.74
2018-10-02T16:16:20.510Z,19.75
2018-10-02T16:18:49.940Z,19.34
2018-10-02T16:21:19.404Z,19.58
2018-10-02T16:23:48.985Z,19.59
2018-10-02T16:26:18.347Z,19.41
2018-10-02T16:28:47.601Z,19.34
2018-10-02T16:31:16.851Z,18.97
2018-10-02T16:33:45.890Z,18.90
2018-10-02T16:36:15.033Z,18.65
2018-10-02T16:38:44.278Z,18.47
2018-10-02T16:41:13.685Z,18.38
2018-10-02T16:43:42.834Z,18.54
2018-10-02T16:46:11.974Z,18.38
2018-10-02T16:48:41.256Z,18.39
2018-10-02T16:51:10.366Z,18.41
2018-10-02T16:53:39.514Z,18.35
2018-10-02T16:56:08.543Z,18.27
2018-10-02T16:58:38.395Z,18.24
2018-10-02T17:01:07.805Z,18.44
2018-10-02T17:03:37.304Z,18.62
2018-10-02T17:06:06.410Z,18.22
2018-10-02T17:08:35.498Z,18.11
2018-10-02T17:11:04.792Z,18.25
2018-10-02T17:13:34.159Z,18.06
2018-10-02T17:16:03.336Z,18.06
2018-10-02T17:18:32.367Z,18.06
2018-10-02T17:21:01.513Z,18.37
2018-10-02T17:23:31.177Z,18.67
2018-10-02T17:26:00.170Z,18.21
2018-10-02T17:28:29.362Z,18.41
2018-10-02T17:30:58.433Z,18.41
2018-10-02T17:33:27.752Z,18.59
2018-10-02T17:35:56.964Z,18.33
2018-10-02T17:38:26.026Z,18.19
2018-10-02T17:40:55.465Z,18.20
2018-10-02T17:43:24.648Z,18.45
2018-10-02T17:45:53.788Z,18.10
2018-10-02T17:48:22.796Z,17.94
2018-10-02T17:50:52.188Z,17.97
2018-10-02T17:53:22.018Z,17.96
2018-10-02T17:55:51.723Z,17.85
2018-10-02T17:58:21.134Z,17.81
2018-10-02T18:00:50.258Z,17.69
2018-10-02T18:03:19.433Z,17.57
2018-10-02T18:05:48.886Z,17.49
2018-10-02T18:08:18.027Z,17.43
2018-10-02T18:10:47.491Z,17.42
2018-10-02T18:13:16.710Z,17.43
2018-10-02T18:15:46.240Z,17.35
2018-10-02T18:18:15.393Z,17.45
2018-10-02T18:20:44.544Z,17.43
2018-10-02T18:23:13.628Z,17.33
2018-10-02T18:25:42.733Z,17.39
2018-10-02T18:28:11.796Z,17.34
2018-10-02T18:30:40.873Z,17.63
2018-10-02T18:33:10.202Z,17.56
2018-10-02T18:35:39.313Z,18.09
2018-10-02T18:38:08.335Z,18.08
2018-10-02T18:40:37.497Z,18.09
2018-10-02T18:43:06.574Z,18.04
2018-10-02T18:45:35.712Z,17.86
2018-10-02T18:48:04.716Z,17.67
2018-10-02T18:50:33.871Z,18.05
2018-10-02T18:53:03.078Z,17.88
2018-10-02T18:55:32.480Z,17.70
2018-10-02T18:58:01.638Z,17.54
2018-10-02T19:00:31.032Z,17.42
2018-10-02T19:03:00.673Z,17.29
2018-10-02T19:05:30.608Z,17.21
2018-10-02T19:07:59.689Z,17.15
2018-10-02T19:10:29.208Z,17.10
2018-10-02T19:12:58.868Z,17.04
2018-10-02T19:15:32.192Z,17.08
2018-10-02T19:18:01.291Z,17.11
2018-10-02T19:20:35.320Z,17.11
2018-10-02T19:23:04.432Z,17.13
2018-10-02T19:25:38.416Z,17.07
2018-10-02T19:28:07.947Z,17.07
2018-10-02T19:30:42.062Z,17.06
2018-10-02T19:33:11.466Z,17.08
2018-10-02T19:35:40.663Z,17.07
2018-10-02T19:38:14.588Z,17.07
2018-10-02T19:40:43.664Z,17.04
2018-10-02T19:43:14.755Z,17.02
2018-10-02T19:45:48.928Z,17.00
2018-10-02T19:48:19.736Z,17.01
2018-10-02T19:53:45.974Z,16.93
2018-10-02T19:58:56.735Z,16.89
2018-10-02T20:01:25.784Z,16.94
2018-10-02T20:03:54.914Z,16.93
2018-10-02T20:06:26.125Z,16.97
2018-10-02T20:08:55.258Z,17.01
2018-10-02T20:11:24.322Z,17.03
2018-10-02T20:13:53.377Z,17.09
2018-10-02T20:16:22.472Z,17.03
2018-10-02T20:18:51.562Z,17.00
2018-10-02T20:21:20.969Z,16.97
2018-10-02T20:23:50.004Z,16.94
2018-10-02T20:26:19.180Z,16.88
2018-10-02T20:28:48.235Z,16.89
2018-10-02T20:31:17.360Z,17.08
2018-10-02T20:33:46.676Z,17.21
2018-10-02T20:36:15.756Z,17.02
2018-10-02T20:38:44.945Z,17.00
2018-10-02T20:41:14.015Z,16.99
2018-10-02T20:43:43.210Z,17.05
2018-10-02T20:46:12.335Z,16.99
2018-10-02T20:48:41.473Z,16.93
2018-10-02T20:51:10.916Z,16.90
2018-10-02T20:53:39.997Z,16.80
2018-10-02T20:56:09.028Z,16.72
2018-10-02T20:58:38.391Z,16.70
2018-10-02T21:01:07.957Z,16.62
2018-10-02T21:03:37.221Z,16.61
2018-10-02T21:06:06.622Z,16.52
2018-10-02T21:08:35.729Z,16.45
2018-10-02T21:11:04.847Z,16.36
2018-10-02T21:13:34.008Z,16.28
2018-10-02T21:16:03.061Z,16.21
2018-10-02T21:18:32.210Z,16.18
2018-10-02T21:21:01.512Z,16.22
2018-10-02T21:23:31.070Z,16.19
2018-10-02T21:26:00.419Z,16.06
2018-10-02T21:28:29.734Z,16.02
2018-10-02T21:30:58.806Z,16.03
2018-10-02T21:33:27.964Z,15.99
2018-10-02T21:35:57.261Z,15.95
2018-10-02T21:38:26.320Z,15.93
2018-10-02T21:40:55.708Z,15.87
2018-10-02T21:43:25.240Z,15.94
2018-10-02T21:45:54.323Z,15.96
2018-10-02T21:48:23.425Z,15.94
2018-10-02T21:50:52.482Z,15.89
2018-10-02T21:53:21.612Z,15.96
2018-10-02T21:55:50.643Z,15.96
2018-10-02T21:58:20.076Z,15.91
2018-10-02T22:00:49.540Z,15.87
2018-10-02T22:03:18.959Z,15.83
2018-10-02T22:05:48.544Z,15.82
2018-10-02T22:08:17.996Z,15.79
2018-10-02T22:10:47.502Z,15.70
2018-10-02T22:13:17.004Z,15.69
2018-10-02T22:15:46.687Z,15.75
2018-10-02T22:18:16.091Z,15.69
2018-10-02T22:20:45.519Z,15.59
2018-10-02T22:23:14.893Z,15.55
2018-10-02T22:25:44.214Z,15.49
2018-10-02T22:28:13.442Z,15.43
2018-10-02T22:30:42.949Z,15.46
2018-10-02T22:33:12.739Z,15.43
2018-10-02T22:35:43.170Z,15.40
2018-10-02T22:38:12.736Z,15.38
2018-10-02T22:40:42.083Z,15.42
2018-10-02T22:43:11.480Z,15.43
2018-10-02T22:45:40.872Z,15.34
2018-10-02T22:48:10.351Z,15.36
2018-10-02T22:50:39.908Z,15.35
2018-10-02T22:53:09.406Z,15.39
2018-10-02T22:55:38.828Z,15.36
2018-10-02T22:58:08.608Z,15.39
2018-10-02T23:00:37.997Z,15.30
2018-10-02T23:03:07.310Z,15.25
2018-10-02T23:05:36.780Z,15.22
2018-10-02T23:08:06.104Z,15.22
2018-10-02T23:10:35.674Z,15.17
2018-10-02T23:13:05.062Z,15.34
2018-10-02T23:15:34.489Z,15.16
2018-10-02T23:18:04.074Z,15.13
2018-10-02T23:20:33.653Z,15.04
2018-10-02T23:23:03.184Z,15.03
2018-10-02T23:25:32.490Z,14.96
2018-10-02T23:28:01.875Z,14.91
2018-10-02T23:30:31.473Z,14.88
2018-10-02T23:33:01.069Z,14.80
2018-10-02T23:35:30.375Z,14.81
2018-10-02T23:37:59.717Z,14.75
2018-10-02T23:40:29.269Z,14.72
2018-10-02T23:42:58.682Z,14.72
2018-10-02T23:45:28.207Z,14.70
2018-10-02T23:47:57.767Z,14.87
2018-10-02T23:50:27.336Z,14.70
2018-10-02T23:52:56.846Z,14.67
2018-10-02T23:55:26.404Z,14.61
2018-10-02T23:57:55.742Z,14.70
